createdAt,value
2022-12-27T00:00:11.058Z,8.78
2022-12-27T00:01:32.622Z,9.34
2022-12-27T00:02:53.917Z,9.36
2022-12-27T00:04:15.072Z,8.66
2022-12-27T00:05:36.012Z,9.28
2022-12-27T00:06:57.065Z,9.07
2022-12-27T00:08:18.603Z,9.27
2022-12-27T00:09:40.076Z,9.34
2022-12-27T00:12:20.799Z,9.51
2022-12-27T00:13:42.398Z,9.01
2022-12-27T00:15:04.599Z,9.09
2022-12-27T00:16:26.509Z,8.66
2022-12-27T00:17:47.644Z,8.75
2022-12-27T00:19:08.767Z,9.07
2022-12-27T00:20:30.142Z,9.32
2022-12-27T00:21:51.414Z,8.75
2022-12-27T00:23:12.927Z,9.51
2022-12-27T00:24:34.489Z,9.15
2022-12-27T00:27:19.581Z,8.86
2022-12-27T00:28:41.017Z,9.24
2022-12-27T00:30:03.349Z,12.26
2022-12-27T00:31:25.907Z,9.48
2022-12-27T00:32:47.084Z,10.33
2022-12-27T00:34:08.688Z,9.95
2022-12-27T00:35:30.499Z,12.26
2022-12-27T00:36:52.303Z,10.32
2022-12-27T00:38:13.653Z,11.49
2022-12-27T00:39:34.946Z,15.16
2022-12-27T00:40:56.734Z,11.30
2022-12-27T00:42:18.448Z,25.61
2022-12-27T00:43:39.558Z,24.67
2022-12-27T00:45:00.908Z,13.15
2022-12-27T00:46:22.383Z,17.51
2022-12-27T00:47:43.736Z,18.55
2022-12-27T00:49:05.424Z,25.75
2022-12-27T00:50:27.089Z,17.61
2022-12-27T00:51:48.394Z,14.56
2022-12-27T00:53:09.949Z,17.34
2022-12-27T00:54:31.162Z,11.43
2022-12-27T00:55:52.258Z,11.75
2022-12-27T00:57:13.550Z,9.77
2022-12-27T00:58:40.490Z,13.23
2022-12-27T00:59:58.349Z,11.16
2022-12-27T01:01:20.086Z,10.42
2022-12-27T01:02:41.207Z,9.48
2022-12-27T01:04:02.162Z,9.17
2022-12-27T01:05:23.572Z,8.32
2022-12-27T01:06:45.213Z,8.75
2022-12-27T01:08:06.495Z,8.44
2022-12-27T01:09:28.074Z,8.43
2022-12-27T01:10:49.675Z,8.42
2022-12-27T01:12:10.963Z,8.47
2022-12-27T01:13:32.648Z,8.77
2022-12-27T01:14:53.971Z,8.79
2022-12-27T01:16:19.574Z,8.37
2022-12-27T01:17:40.899Z,8.36
2022-12-27T01:19:01.754Z,8.37
2022-12-27T01:20:23.354Z,8.22
2022-12-27T01:21:44.846Z,8.27
2022-12-27T01:23:06.258Z,8.66
2022-12-27T01:24:27.882Z,8.49
2022-12-27T01:25:49.242Z,8.15
2022-12-27T01:27:10.318Z,8.39
2022-12-27T01:28:31.611Z,8.54
2022-12-27T01:29:52.652Z,8.70
2022-12-27T01:31:18.169Z,9.10
2022-12-27T01:32:39.164Z,8.12
2022-12-27T01:34:00.629Z,7.86
2022-12-27T01:35:22.010Z,10.07
2022-12-27T01:36:43.980Z,10.98
2022-12-27T01:38:05.127Z,10.53
2022-12-27T01:39:26.589Z,11.36
2022-12-27T01:40:47.915Z,10.67
2022-12-27T01:43:36.879Z,10.72
2022-12-27T01:44:58.313Z,8.33
2022-12-27T01:46:20.155Z,9.87
2022-12-27T01:48:06.196Z,10.13
2022-12-27T01:49:27.241Z,9.74
2022-12-27T01:52:01.494Z,11.80
2022-12-27T01:53:25.123Z,11.49
2022-12-27T01:54:46.665Z,13.83
2022-12-27T01:56:26.337Z,10.53
2022-12-27T01:57:47.765Z,15.00
2022-12-27T01:59:08.844Z,14.53
2022-12-27T02:00:30.161Z,13.17
2022-12-27T02:01:51.513Z,12.58
2022-12-27T02:03:14.109Z,12.30
2022-12-27T02:04:35.250Z,12.82
2022-12-27T02:05:57.069Z,11.41
2022-12-27T02:07:20.288Z,9.80
2022-12-27T02:10:21.569Z,10.98
2022-12-27T02:11:44.979Z,11.92
2022-12-27T02:13:06.231Z,12.25
2022-12-27T02:14:41.376Z,12.91
2022-12-27T02:16:14.869Z,12.28
2022-12-27T02:17:36.116Z,12.03
2022-12-27T02:18:57.119Z,12.69
2022-12-27T02:20:21.451Z,18.34
2022-12-27T02:23:17.553Z,12.84
2022-12-27T02:24:45.671Z,15.53
2022-12-27T02:26:44.883Z,13.17
2022-12-27T02:28:15.552Z,11.71
2022-12-27T02:29:45.188Z,11.35
2022-12-27T02:31:09.883Z,13.62
2022-12-27T02:32:34.691Z,13.49
2022-12-27T02:33:55.930Z,13.39
2022-12-27T02:35:23.590Z,12.11
2022-12-27T02:36:45.806Z,12.30
2022-12-27T02:38:10.800Z,11.74
2022-12-27T02:39:33.803Z,11.19
2022-12-27T02:40:55.409Z,11.43
2022-12-27T02:42:17.036Z,9.51
2022-12-27T02:43:38.467Z,10.32
2022-12-27T02:45:00.618Z,10.48
2022-12-27T02:46:25.719Z,8.56
2022-12-27T02:47:47.817Z,8.54
2022-12-27T02:49:35.803Z,9.87
2022-12-27T02:51:25.227Z,10.43
2022-12-27T02:52:52.313Z,9.52
2022-12-27T02:54:25.952Z,8.78
2022-12-27T02:57:19.694Z,8.21
2022-12-27T02:59:08.246Z,7.76
2022-12-27T03:00:30.004Z,7.60
2022-12-27T03:02:14.805Z,7.93
2022-12-27T03:03:45.706Z,8.80
2022-12-27T03:05:27.175Z,7.67
2022-12-27T03:07:01.150Z,7.61
2022-12-27T03:08:26.217Z,6.99
2022-12-27T03:10:10.673Z,7.87
2022-12-27T03:13:08.798Z,6.70
2022-12-27T03:14:35.576Z,7.23
2022-12-27T03:16:15.630Z,6.97
2022-12-27T03:17:40.136Z,6.56
2022-12-27T03:19:12.651Z,6.91
2022-12-27T03:20:33.986Z,6.54
2022-12-27T03:21:55.153Z,7.09
2022-12-27T03:23:16.810Z,6.51
2022-12-27T03:24:38.475Z,6.67
2022-12-27T03:26:00.343Z,6.84
2022-12-27T03:28:34.913Z,5.21
2022-12-27T03:29:57.408Z,6.39
2022-12-27T03:31:26.887Z,6.93
2022-12-27T03:32:51.399Z,7.09
2022-12-27T03:34:15.706Z,7.18
2022-12-27T03:35:55.843Z,7.27
2022-12-27T03:38:41.979Z,6.14
2022-12-27T03:40:16.412Z,6.79
2022-12-27T03:41:40.149Z,7.03
2022-12-27T03:44:17.049Z,5.22
2022-12-27T03:45:51.026Z,6.40
2022-12-27T03:47:24.588Z,6.87
2022-12-27T03:50:17.729Z,5.97
2022-12-27T03:52:18.748Z,6.37
2022-12-27T03:53:41.450Z,6.32
2022-12-27T03:56:23.610Z,5.94
2022-12-27T03:57:44.765Z,6.73
2022-12-27T03:59:06.250Z,6.73
2022-12-27T04:00:27.897Z,6.79
2022-12-27T04:01:48.940Z,6.73
2022-12-27T04:03:10.505Z,6.48
2022-12-27T04:04:31.918Z,8.25
2022-12-27T04:05:53.446Z,6.84
2022-12-27T04:07:14.892Z,6.89
2022-12-27T04:08:36.111Z,6.62
2022-12-27T04:09:57.116Z,6.41
2022-12-27T04:11:18.179Z,6.31
2022-12-27T04:12:39.368Z,5.74
2022-12-27T04:14:00.823Z,6.38
2022-12-27T04:15:22.572Z,8.13
2022-12-27T04:16:44.201Z,6.74
2022-12-27T04:18:05.436Z,6.14
2022-12-27T04:19:27.045Z,5.27
2022-12-27T04:20:49.187Z,6.03
2022-12-27T04:22:10.232Z,6.66
2022-12-27T04:23:31.240Z,5.66
2022-12-27T04:24:52.630Z,5.68
2022-12-27T04:26:15.762Z,5.72
2022-12-27T04:27:37.103Z,5.65
2022-12-27T04:28:58.310Z,5.78
2022-12-27T04:30:20.172Z,5.54
2022-12-27T04:31:41.661Z,5.67
2022-12-27T04:33:03.004Z,5.08
2022-12-27T04:34:23.985Z,5.08
2022-12-27T04:35:45.447Z,5.50
2022-12-27T04:37:06.853Z,5.68
2022-12-27T04:38:28.414Z,6.04
2022-12-27T04:39:49.869Z,5.54
2022-12-27T04:41:11.490Z,5.76
2022-12-27T04:42:32.602Z,5.57
2022-12-27T04:43:54.423Z,5.02
2022-12-27T04:45:15.871Z,5.43
2022-12-27T04:46:37.298Z,5.47
2022-12-27T04:47:58.490Z,4.84
2022-12-27T04:49:23.858Z,5.11
2022-12-27T04:50:45.435Z,5.42
2022-12-27T04:53:28.040Z,5.50
2022-12-27T04:54:49.752Z,5.63
2022-12-27T04:56:12.586Z,4.78
2022-12-27T04:57:33.680Z,5.19
2022-12-27T04:58:55.195Z,4.97
2022-12-27T05:00:19.180Z,4.94
2022-12-27T05:01:40.687Z,4.97
2022-12-27T05:03:04.301Z,5.26
2022-12-27T05:04:25.688Z,5.10
2022-12-27T05:05:47.144Z,5.71
2022-12-27T05:07:09.860Z,5.18
2022-12-27T05:08:31.104Z,5.24
2022-12-27T05:10:18.483Z,5.32
2022-12-27T05:11:41.505Z,5.20
2022-12-27T05:14:28.420Z,4.96
2022-12-27T05:15:50.174Z,5.78
2022-12-27T05:17:11.611Z,5.71
2022-12-27T05:18:33.039Z,5.37
2022-12-27T05:19:55.533Z,6.08
2022-12-27T05:21:16.898Z,5.94
2022-12-27T05:22:38.473Z,5.29
2022-12-27T05:24:05.145Z,4.68
2022-12-27T05:25:23.374Z,4.68
2022-12-27T05:26:44.916Z,4.83
2022-12-27T05:28:10.638Z,5.61
2022-12-27T05:29:31.805Z,5.64
2022-12-27T05:30:53.371Z,5.13
2022-12-27T05:32:14.601Z,5.14
2022-12-27T05:33:35.592Z,5.32
2022-12-27T05:34:57.166Z,5.01
2022-12-27T05:36:21.918Z,4.56
2022-12-27T05:37:43.327Z,4.78
2022-12-27T05:39:04.844Z,4.57
2022-12-27T05:40:26.282Z,5.37
2022-12-27T05:41:47.282Z,4.69
2022-12-27T05:43:08.590Z,5.28
2022-12-27T05:44:30.974Z,6.01
2022-12-27T05:45:52.276Z,5.61
2022-12-27T05:47:13.389Z,6.89
2022-12-27T05:48:34.491Z,7.07
2022-12-27T05:49:55.806Z,6.88
2022-12-27T05:51:19.123Z,9.73
2022-12-27T05:52:41.295Z,8.83
2022-12-27T05:54:06.955Z,5.75
2022-12-27T05:55:28.408Z,6.18
2022-12-27T05:56:49.827Z,6.37
2022-12-27T05:58:11.200Z,5.16
2022-12-27T05:59:32.549Z,5.72
2022-12-27T06:00:54.442Z,6.77
2022-12-27T06:02:16.170Z,7.34
2022-12-27T06:03:37.451Z,7.49
2022-12-27T06:04:58.588Z,5.64
2022-12-27T06:06:21.544Z,6.25
2022-12-27T06:07:42.650Z,5.47
2022-12-27T06:09:04.236Z,5.52
2022-12-27T06:10:25.933Z,4.79
2022-12-27T06:11:47.336Z,5.68
2022-12-27T06:13:08.724Z,5.59
2022-12-27T06:14:32.276Z,5.26
2022-12-27T06:15:53.494Z,5.17
2022-12-27T06:17:15.058Z,5.49
2022-12-27T06:18:37.410Z,5.22
2022-12-27T06:19:59.290Z,5.76
2022-12-27T06:21:21.311Z,6.56
2022-12-27T06:22:42.818Z,6.67
2022-12-27T06:24:04.937Z,7.21
2022-12-27T06:25:27.396Z,7.63
2022-12-27T06:28:10.050Z,7.74
2022-12-27T06:29:31.609Z,6.41
2022-12-27T06:30:53.002Z,6.97
2022-12-27T06:32:14.119Z,6.89
2022-12-27T06:33:40.254Z,6.26
2022-12-27T06:35:04.939Z,7.18
2022-12-27T06:36:26.080Z,7.32
2022-12-27T06:37:47.225Z,12.77
2022-12-27T06:39:08.824Z,10.74
2022-12-27T06:40:30.990Z,7.13
2022-12-27T06:41:52.659Z,6.14
2022-12-27T06:43:15.062Z,6.94
2022-12-27T06:44:36.627Z,7.87
2022-12-27T06:46:05.903Z,7.76
2022-12-27T06:47:32.700Z,7.71
2022-12-27T06:48:54.271Z,7.07
2022-12-27T06:50:16.586Z,7.14
2022-12-27T06:51:40.391Z,6.28
2022-12-27T06:53:01.678Z,7.16
2022-12-27T06:54:24.858Z,7.79
2022-12-27T06:55:45.930Z,7.36
2022-12-27T06:57:11.722Z,7.32
2022-12-27T06:58:36.139Z,8.02
2022-12-27T07:01:43.797Z,6.43
2022-12-27T07:03:07.394Z,7.37
2022-12-27T07:04:28.867Z,5.82
2022-12-27T07:05:50.462Z,5.27
2022-12-27T07:07:15.637Z,6.13
2022-12-27T07:10:19.884Z,7.54
2022-12-27T07:11:43.968Z,6.23
2022-12-27T07:13:08.109Z,5.40
2022-12-27T07:14:31.229Z,5.87
2022-12-27T07:15:53.080Z,6.31
2022-12-27T07:17:14.815Z,5.20
2022-12-27T07:18:37.361Z,5.83
2022-12-27T07:20:01.154Z,5.61
2022-12-27T07:21:41.486Z,5.65
2022-12-27T07:23:03.363Z,5.21
2022-12-27T07:24:25.785Z,5.41
2022-12-27T07:25:47.362Z,5.13
2022-12-27T07:27:10.140Z,5.52
2022-12-27T07:28:31.614Z,5.49
2022-12-27T07:29:52.853Z,5.57
2022-12-27T07:31:18.930Z,5.12
2022-12-27T07:32:40.450Z,5.31
2022-12-27T07:34:02.885Z,5.36
2022-12-27T07:35:25.110Z,5.31
2022-12-27T07:36:48.290Z,5.51
2022-12-27T07:38:10.260Z,5.12
2022-12-27T07:39:39.280Z,4.98
2022-12-27T07:41:01.740Z,4.73
2022-12-27T07:42:26.772Z,3.87
2022-12-27T07:43:58.307Z,4.09
2022-12-27T07:45:25.854Z,4.45
2022-12-27T07:46:47.473Z,3.88
2022-12-27T07:48:12.066Z,4.70
2022-12-27T07:49:33.259Z,4.23
2022-12-27T07:50:54.723Z,4.58
2022-12-27T07:52:16.164Z,4.15
2022-12-27T07:55:23.588Z,3.86
2022-12-27T07:56:49.593Z,3.84
2022-12-27T07:58:12.095Z,3.41
2022-12-27T08:02:13.284Z,3.22
2022-12-27T08:03:34.896Z,2.94
2022-12-27T08:05:01.404Z,2.86
2022-12-27T08:06:31.353Z,3.66
2022-12-27T08:08:02.920Z,3.22
2022-12-27T08:09:27.357Z,3.16
2022-12-27T08:10:48.876Z,3.53
2022-12-27T08:12:11.576Z,3.04
2022-12-27T08:13:34.890Z,3.12
2022-12-27T08:15:01.947Z,2.82
2022-12-27T08:18:15.822Z,2.70
2022-12-27T08:19:48.320Z,2.99
2022-12-27T08:21:12.822Z,3.01
2022-12-27T08:22:34.830Z,2.78
2022-12-27T08:24:05.895Z,2.87
2022-12-27T08:25:32.830Z,2.79
2022-12-27T08:27:00.538Z,2.89
2022-12-27T08:28:23.125Z,2.70
2022-12-27T08:35:25.208Z,2.91
2022-12-27T08:38:32.709Z,2.65
2022-12-27T08:40:05.789Z,2.48
2022-12-27T08:41:46.559Z,2.78
2022-12-27T08:45:00.786Z,2.47
2022-12-27T08:48:10.181Z,2.17
2022-12-27T08:49:34.729Z,2.57
2022-12-27T08:50:59.500Z,2.51
2022-12-27T08:52:24.375Z,2.24
2022-12-27T08:53:54.007Z,2.34
2022-12-27T08:59:01.810Z,2.41
2022-12-27T09:09:02.507Z,2.19
2022-12-27T09:12:11.839Z,2.08
2022-12-27T09:24:15.538Z,2.09
2022-12-27T09:25:42.639Z,1.88
2022-12-27T09:28:54.464Z,1.84
2022-12-27T09:30:19.415Z,2.16
2022-12-27T09:31:42.193Z,1.90
2022-12-27T09:33:06.150Z,1.92
2022-12-27T09:34:32.470Z,1.96
2022-12-27T09:36:07.844Z,2.26
2022-12-27T09:37:29.191Z,1.93
2022-12-27T09:39:04.498Z,1.94
2022-12-27T09:40:25.985Z,1.88
2022-12-27T09:45:07.712Z,1.51
2022-12-27T09:48:04.026Z,4.08
2022-12-27T09:50:56.750Z,2.23
2022-12-27T09:52:24.283Z,2.13
2022-12-27T09:55:41.895Z,2.62
2022-12-27T09:59:23.546Z,2.35
2022-12-27T10:09:44.669Z,3.06
2022-12-27T10:12:32.214Z,2.27
2022-12-27T10:13:56.266Z,2.27
2022-12-27T10:15:29.939Z,1.90
2022-12-27T10:16:58.192Z,1.88
2022-12-27T10:18:31.950Z,1.84
2022-12-27T10:20:16.499Z,2.00
2022-12-27T10:21:40.965Z,2.05
2022-12-27T10:23:06.438Z,1.90
2022-12-27T10:24:44.935Z,1.58
2022-12-27T10:26:15.673Z,1.68
2022-12-27T10:27:37.079Z,1.80
2022-12-27T12:47:46.613Z,1.77
2022-12-27T13:01:05.408Z,1.71
2022-12-27T13:04:05.001Z,1.81
2022-12-27T13:05:46.082Z,1.83
2022-12-27T13:07:12.102Z,2.41
2022-12-27T13:09:00.947Z,2.05
2022-12-27T13:11:00.822Z,2.02
2022-12-27T13:12:44.984Z,1.93
2022-12-27T13:14:41.902Z,2.17
2022-12-27T13:16:42.104Z,2.11
2022-12-27T13:18:40.597Z,1.77
2022-12-27T13:20:08.706Z,2.06
2022-12-27T13:21:56.158Z,2.44
2022-12-27T13:23:38.100Z,1.81
2022-12-27T13:25:19.627Z,1.82
2022-12-27T13:27:04.517Z,1.78
2022-12-27T13:28:34.796Z,1.77
2022-12-27T13:30:19.959Z,1.83
2022-12-27T13:32:02.882Z,1.73
2022-12-27T13:34:01.303Z,2.09
2022-12-27T13:37:02.262Z,2.49
2022-12-27T13:38:50.579Z,2.12
2022-12-27T13:41:48.238Z,2.73
2022-12-27T13:43:36.224Z,1.78
2022-12-27T13:45:22.010Z,1.81
2022-12-27T13:47:15.545Z,1.96
2022-12-27T13:48:46.521Z,1.99
2022-12-27T13:50:17.205Z,1.85
2022-12-27T13:51:44.102Z,1.74
2022-12-27T13:53:24.445Z,1.83
2022-12-27T13:55:01.728Z,2.61
2022-12-27T13:56:57.499Z,2.28
2022-12-27T13:58:34.297Z,1.99
2022-12-27T14:00:17.759Z,2.13
2022-12-27T14:01:51.605Z,2.35
2022-12-27T14:07:20.531Z,3.22
2022-12-27T14:09:01.229Z,2.03
2022-12-27T14:12:16.137Z,1.94
2022-12-27T14:13:57.067Z,3.62
2022-12-27T14:17:24.743Z,1.98
2022-12-27T14:19:11.952Z,1.93
2022-12-27T14:23:51.356Z,1.83
2022-12-27T14:25:33.007Z,2.12
2022-12-27T14:27:21.252Z,2.53
2022-12-27T14:29:20.743Z,1.97
2022-12-27T14:30:48.716Z,1.95
2022-12-27T14:32:42.723Z,1.99
2022-12-27T14:34:22.946Z,1.95
2022-12-27T14:35:56.929Z,2.19
2022-12-27T14:37:34.126Z,2.20
2022-12-27T14:39:02.342Z,2.47
2022-12-27T14:40:50.626Z,2.58
2022-12-27T14:42:16.146Z,2.36
2022-12-27T14:43:41.240Z,2.11
2022-12-27T14:46:52.644Z,1.58
2022-12-27T14:48:36.519Z,1.92
2022-12-27T14:50:16.508Z,1.99
2022-12-27T14:52:12.894Z,2.22
2022-12-27T14:54:09.060Z,2.12
2022-12-27T14:55:50.368Z,2.06
2022-12-27T14:57:33.810Z,2.31
2022-12-27T14:59:29.745Z,2.46
2022-12-27T15:01:07.707Z,2.23
2022-12-27T15:03:00.870Z,2.06
2022-12-27T15:04:42.427Z,2.46
2022-12-27T15:06:27.212Z,2.54
2022-12-27T15:08:16.912Z,2.06
2022-12-27T15:10:06.106Z,1.91
2022-12-27T15:11:36.705Z,1.83
2022-12-27T15:13:04.626Z,1.87
2022-12-27T15:14:30.012Z,1.98
2022-12-27T15:16:14.972Z,2.06
2022-12-27T15:17:36.645Z,1.98
2022-12-27T15:19:19.672Z,1.79
2022-12-27T15:20:44.704Z,1.89
2022-12-27T15:22:21.780Z,1.86
2022-12-27T15:23:56.597Z,1.75
2022-12-27T15:25:21.857Z,2.00
2022-12-27T15:26:53.193Z,1.98
2022-12-27T15:28:21.302Z,2.02
2022-12-27T15:29:52.467Z,1.87
2022-12-27T15:31:20.006Z,2.04
2022-12-27T15:33:04.285Z,2.22
2022-12-27T15:34:32.428Z,2.43
2022-12-27T15:36:06.509Z,2.13
2022-12-27T15:37:48.008Z,1.97
2022-12-27T15:40:37.355Z,2.11
2022-12-27T15:42:20.358Z,2.52
2022-12-27T15:44:02.169Z,1.97
2022-12-27T15:45:39.818Z,2.06
2022-12-27T15:47:14.049Z,1.83
2022-12-27T15:48:53.970Z,2.11
2022-12-27T15:50:35.357Z,2.21
2022-12-27T15:52:12.248Z,1.76
2022-12-27T15:53:39.954Z,2.01
2022-12-27T15:55:23.106Z,2.01
2022-12-27T15:57:03.062Z,1.87
2022-12-27T15:58:24.681Z,1.81
2022-12-27T15:59:56.922Z,1.88
2022-12-27T16:01:28.871Z,2.21
2022-12-27T16:02:54.139Z,2.10
2022-12-27T16:04:48.299Z,2.19
2022-12-27T16:07:59.523Z,2.94
2022-12-27T16:09:27.270Z,2.01
2022-12-27T16:10:50.008Z,2.41
2022-12-27T16:12:12.144Z,2.24
2022-12-27T16:13:41.768Z,2.37
2022-12-27T16:15:36.099Z,2.52
2022-12-27T16:17:18.353Z,2.06
2022-12-27T16:18:49.532Z,1.78
2022-12-27T16:21:37.182Z,2.49
2022-12-27T16:24:16.698Z,2.77
2022-12-27T16:25:41.375Z,2.80
2022-12-27T16:27:03.320Z,2.62
2022-12-27T16:28:25.658Z,2.28
2022-12-27T16:29:46.931Z,2.31
2022-12-27T16:31:10.450Z,2.64
2022-12-27T16:32:31.871Z,2.14
2022-12-27T16:33:57.877Z,3.44
2022-12-27T16:35:19.274Z,2.09
2022-12-27T16:36:45.062Z,2.10
2022-12-27T16:38:09.934Z,1.90
2022-12-27T16:39:51.322Z,1.88
2022-12-27T21:59:07.941Z,3.95
2022-12-27T22:00:29.315Z,3.82
2022-12-27T22:01:52.627Z,3.58
2022-12-27T22:03:13.719Z,3.46
2022-12-27T22:04:34.906Z,3.43
2022-12-27T22:05:55.944Z,3.35
2022-12-27T22:07:17.178Z,3.68
2022-12-27T22:08:38.764Z,3.94
2022-12-27T22:10:00.125Z,3.73
2022-12-27T22:11:21.535Z,3.54
2022-12-27T22:12:42.932Z,4.02
2022-12-27T22:14:04.559Z,3.49
2022-12-27T22:15:26.023Z,3.48
2022-12-27T22:16:47.658Z,3.29
2022-12-27T22:18:09.068Z,3.54
2022-12-27T22:19:30.512Z,3.93
2022-12-27T22:20:52.370Z,3.88
2022-12-27T22:22:13.574Z,3.68
2022-12-27T22:24:47.379Z,3.96
2022-12-27T22:26:10.965Z,3.74
2022-12-27T22:27:32.528Z,3.72
2022-12-27T22:28:54.370Z,3.91
2022-12-27T22:30:16.480Z,3.81
2022-12-27T22:31:37.631Z,3.73
2022-12-27T22:32:59.267Z,3.81
2022-12-27T22:34:20.369Z,3.56
2022-12-27T22:35:41.690Z,4.04
2022-12-27T22:37:02.997Z,3.88
2022-12-27T22:38:24.662Z,3.77
2022-12-27T22:39:45.691Z,3.92
2022-12-27T22:42:23.251Z,4.00
2022-12-27T22:43:49.568Z,8.82
2022-12-27T22:45:11.163Z,4.91
2022-12-27T22:46:58.750Z,3.92
2022-12-27T22:47:56.011Z,3.66
2022-12-27T22:49:17.350Z,3.75
2022-12-27T22:50:38.971Z,3.78
2022-12-27T22:52:00.330Z,3.47
2022-12-27T22:53:21.590Z,3.63
2022-12-27T22:55:04.399Z,3.80
2022-12-27T22:56:13.995Z,3.69
2022-12-27T22:57:35.104Z,3.89
2022-12-27T22:58:56.426Z,3.67
2022-12-27T23:00:18.612Z,3.39
2022-12-27T23:01:40.593Z,3.78
2022-12-27T23:03:01.703Z,4.04
2022-12-27T23:04:23.073Z,4.28
2022-12-27T23:05:44.498Z,3.94
2022-12-27T23:07:05.588Z,3.83
2022-12-27T23:08:27.493Z,3.96
2022-12-27T23:09:48.837Z,3.82
2022-12-27T23:11:12.301Z,4.18
2022-12-27T23:13:56.125Z,3.87
2022-12-27T23:15:17.217Z,3.74
2022-12-27T23:16:41.082Z,3.87
2022-12-27T23:18:02.323Z,4.16
2022-12-27T23:19:24.004Z,4.37
2022-12-27T23:21:19.138Z,4.42
2022-12-27T23:22:09.072Z,4.08
2022-12-27T23:23:30.770Z,3.97
2022-12-27T23:24:51.991Z,4.19
2022-12-27T23:27:25.747Z,4.12
2022-12-27T23:28:47.463Z,4.08
2022-12-27T23:30:10.576Z,4.37
2022-12-27T23:31:31.807Z,4.47
2022-12-27T23:32:53.333Z,3.97
2022-12-27T23:34:14.730Z,4.31
2022-12-27T23:35:36.200Z,3.98
2022-12-27T23:36:57.842Z,4.14
2022-12-27T23:38:19.352Z,4.44
2022-12-27T23:39:40.459Z,4.18
2022-12-27T23:41:04.257Z,5.01
2022-12-27T23:42:25.359Z,4.49
2022-12-27T23:43:55.805Z,4.14
2022-12-27T23:46:32.640Z,3.97
2022-12-27T23:47:54.014Z,5.09
2022-12-27T23:49:15.513Z,4.26
2022-12-27T23:50:37.097Z,4.58
2022-12-27T23:51:58.212Z,4.38
2022-12-27T23:53:19.185Z,4.74
2022-12-27T23:54:40.162Z,4.33
2022-12-27T23:56:07.458Z,4.54
2022-12-27T23:57:28.533Z,4.38
2022-12-27T23:58:50.684Z,4.25
